KCQT

Los Angeles / USC Campus Downtown Airport

Los Angeles, California, USA
METAR KCQT 172047Z AUTO 00000KT 10SM CLR 23/M04 A3008 RMK AO2 SLP184 T02331039 58017
Observed Flight Rules
Feb-17 @ 20:47 UTC (44 minutes ago) Visual Flight Rules
Wind Visibility Clouds
Calm 10 miles
  • Clear skies
Temperatures Readings
Current 23°C / 73°F
Dewpoint -4°C / 25°F
Humidity 16%
Altimeter 30.08" Hg
Pressure 1018.4 hPa
Elevation 56
METAR KCQT 172047Z AUTO 00000KT 10SM CLR 23/M04 A3008 RMK AO2 SLP184 T02331039 58017
Observed Flight Rules
Feb-17 @ 20:47 UTC
(44 minutes ago)
VFR
Wind Visibility
Calm 10 miles
Clouds
  • Clear skies
Temperature Dewpoint
23°C / 73°F -4°C / 25°F
Humidity Altimeter Pressure
16% 30.08" Hg 1018.4 hPa